Krangede, Sweden

2:12 AM CEST on September 03, 2015 (GMT +0200)
Kramfors-Solleftea Air Base | | Change Station
CLOSE
Current Station
Airport
Location: Kramfors Flygplats,
Elevation: 33 ft
Nearby Weather Stations

Elev 33 ft 63.05 °N, 17.77 °E | Updated 22 minutes ago

Overcast
Overcast
48 °F
Feels Like 48 °F
N
7
Wind Variable Wind from NNE

Today
High -- | Low -- °F
--% Chance of Precip.
Yesterday
High -- | Low -- °F
Precip. -- in
5:45 AM 8:02 PM
Waning Gibbous, 76% visible
Pressure 30.01 in
Visibility 6.2 miles
Clouds Overcast 13000 ft
Dew Point 43 °F
Humidity 82%
Rainfall 0.00 in
Snow Depth Not available.
UV 0 out of 12
Pollen Not available.
Air Quality Not available.
Flu Activity Not available.
METAR ESNK 022350Z AUTO 02006KT 9999 OVC130/// 09/06 Q1016
Pressure 30.01 in
Visibility 6.2 miles
Clouds Overcast 13000 ft
Dew Point 43 °F
Humidity 82%
Rainfall 0.00 in
Snow Depth Not available.
UV 0 out of 12
Pollen Not available.
Air Quality Not available.
Flu Activity Not available.
METAR ESNK 022350Z AUTO 02006KT 9999 OVC130/// 09/06 Q1016

10-Day Weather Forecast

×

Almanac

Astronomy

Sep. 03, 2015 Rise Set
Actual Time
Civil Twilight
Nautical Twilight
Astronomical Twilight
Moon
Length of Visible Light
Length of Day
Tomorrow will be .
, % of the Moon is Illuminated

Today's Extremes

Country Highs Country Lows

Community

WunderPhotos

Upload Photos

1,851,846 photos uploaded!

WunderBlogs® & News

Nearby

Air Quality

  Air Quality AQ Index Pollutant
Not available.

Snow Depth

Station Depth Elevation

Earthquake Activity

City Distance Mag. Time & Date
Minimum magnitude displayed is 2.5.

Coastal Water Temperatures

Place Temperature

Stations

Nearby Weather Stations

Station Location Temp. Windchill Dew Point Humidity Wind Precip. Elev Updated Type